Wetterdaten: Woche 28.12.09 - 03.01.10 (KW53)
Datum Zeit Temp. a Sch. Temp. a Son. Temp. a Bod. Feuchte a. Luftdruck Regen Wind Richtung Sonnenschein Helligkeit Taupunkt Windchill
28.12.2009 00:00 1,7 C 2,3 C -0,1 C 91 % 1003 hPa 0,0 l/m 3,8 m/s (3 Bft) W-SW 0,00 h 0 lux 0,4 C -3,9 C
28.12.2009 01:00 1,7 C 2,2 C -0,0 C 92 % 1003 hPa 0,0 l/m 3,9 m/s (3 Bft) W-SW 0,00 h 0 lux 0,5 C -4,3 C
28.12.2009 02:00 1,9 C 2,3 C 0,0 C 89 % 1003 hPa 0,0 l/m 4,0 m/s (3 Bft) W-SW 0,00 h 0 lux 0,3 C -4,2 C
28.12.2009 03:00 1,9 C 2,4 C -0,0 C 89 % 1003 hPa 0,0 l/m 4,6 m/s (3 Bft) W-SW 0,00 h 0 lux 0,3 C -5,4 C
28.12.2009 04:00 1,9 C 2,3 C 0,0 C 89 % 1003 hPa 0,0 l/m 5,0 m/s (3 Bft) W-SW 0,00 h 0 lux 0,2 C -6,2 C
28.12.2009 05:00 1,7 C 2,2 C -0,0 C 88 % 1003 hPa 0,0 l/m 4,8 m/s (3 Bft) W-SW 0,00 h 0 lux -0,1 C -6,2 C
28.12.2009 06:00 1,8 C 2,3 C 0,0 C 85 % 1003 hPa 0,0 l/m 4,6 m/s (3 Bft) W-SW 0,00 h 0 lux -0,4 C -5,5 C
28.12.2009 07:00 1,6 C 2,2 C -0,0 C 86 % 1004 hPa 0,0 l/m 4,2 m/s (3 Bft) W-SW 0,00 h 0 lux -0,5 C -5,0 C
28.12.2009 08:00 1,7 C 2,1 C -0,1 C 87 % 1004 hPa 0,0 l/m 3,2 m/s (2 Bft) W-SW 0,00 h 345 lux -0,3 C -2,7 C
28.12.2009 09:00 1,9 C 2,3 C 0,1 C 85 % 1004 hPa 0,0 l/m 3,2 m/s (2 Bft) W-SW 0,00 h 2,00 klux -0,3 C -2,4 C
28.12.2009 10:00 2,1 C 2,5 C 0,2 C 85 % 1005 hPa 0,0 l/m 3,2 m/s (2 Bft) W-SW 0,00 h 3,10 klux -0,2 C -2,3 C
28.12.2009 11:00 2,4 C 2,9 C 0,5 C 84 % 1005 hPa 0,0 l/m 2,0 m/s (2 Bft) SW 0,00 h 5,67 klux -0,1 C 1,0 C
28.12.2009 12:00 2,8 C 3,3 C 0,8 C 83 % 1005 hPa 0,0 l/m 1,3 m/s (1 Bft) SW 0,00 h 7,15 klux 0,1 C 2,1 C
28.12.2009 13:00 2,6 C 3,3 C 0,8 C 83 % 1005 hPa 0,0 l/m 0,5 m/s (1 Bft) SW 0,00 h 2,44 klux 0,1 C 2,6 C
28.12.2009 14:00 2,1 C 3,0 C 0,7 C 87 % 1005 hPa 0,4 l/m 0,3 m/s (0 Bft) SW 0,00 h 2,23 klux 0,1 C 2,0 C
28.12.2009 15:00 1,6 C 2,5 C 0,6 C 90 % 1006 hPa 0,4 l/m 0,0 m/s (0 Bft) N 0,00 h 2,56 klux 0,1 C 1,6 C
28.12.2009 16:00 1,1 C 2,1 C 0,3 C 92 % 1006 hPa 0,0 l/m 0,4 m/s (1 Bft) SW 0,00 h 494 lux -0,0 C 1,0 C
28.12.2009 17:00 0,6 C 1,6 C -0,1 C 94 % 1006 hPa 0,0 l/m 0,0 m/s (0 Bft) N 0,00 h 18 lux -0,3 C 0,6 C
28.12.2009 18:00 0,6 C 1,5 C -0,2 C 95 % 1007 hPa 0,0 l/m 0,0 m/s (0 Bft) N 0,00 h 0 lux -0,1 C 0,6 C
28.12.2009 19:00 0,7 C 1,5 C -0,2 C 95 % 1007 hPa 0,0 l/m 0,0 m/s (0 Bft) N 0,00 h 0 lux -0,0 C 0,7 C
28.12.2009 20:00 0,3 C 1,3 C -0,4 C 95 % 1007 hPa 0,0 l/m 0,0 m/s (0 Bft) N 0,00 h 0 lux -0,4 C 0,3 C
28.12.2009 21:00 0,4 C 1,2 C -0,4 C 95 % 1007 hPa 0,0 l/m 0,0 m/s (0 Bft) N 0,00 h 0 lux -0,3 C 0,4 C
28.12.2009 22:00 0,3 C 1,1 C -0,4 C 95 % 1007 hPa 0,0 l/m 0,1 m/s (0 Bft) SO 0,00 h 0 lux -0,4 C 0,3 C
28.12.2009 23:00 -0,3 C 0,6 C -0,8 C 95 % 1007 hPa 0,0 l/m 0,6 m/s (1 Bft) O 0,00 h 0 lux -0,9 C -0,6 C
29.12.2009 00:00 -0,9 C -0,4 C -0,9 C 96 % 1007 hPa 0,0 l/m 0,5 m/s (1 Bft) O 0,00 h 0 lux -1,5 C -0,9 C
29.12.2009 01:00 -1,6 C -1,2 C -1,1 C 96 % 1007 hPa 0,0 l/m 0,2 m/s (0 Bft) O-NO 0,00 h 0 lux -2,1 C -1,6 C
29.12.2009 02:00 -2,4 C -1,8 C -1,4 C 96 % 1007 hPa 0,0 l/m 0,3 m/s (1 Bft) O-NO 0,00 h 0 lux -2,9 C -2,4 C
29.12.2009 03:00 -3,1 C -2,4 C -1,7 C 96 % 1006 hPa 0,0 l/m 0,1 m/s (0 Bft) O-NO 0,00 h 0 lux -3,6 C -3,1 C
29.12.2009 04:00 -3,0 C -2,8 C -2,0 C 96 % 1006 hPa 0,0 l/m 0,7 m/s (1 Bft) O-NO 0,00 h 0 lux -3,5 C -3,1 C
29.12.2009 05:00 -3,1 C -3,0 C -2,3 C 96 % 1005 hPa 0,0 l/m 0,3 m/s (1 Bft) O-NO 0,00 h 0 lux -3,7 C -3,1 C
29.12.2009 06:00 -3,7 C -3,3 C -2,6 C 96 % 1005 hPa 0,0 l/m 0,0 m/s (0 Bft) N 0,00 h 0 lux -4,3 C -3,7 C
29.12.2009 07:00 -3,6 C -3,5 C -2,8 C 97 % 1005 hPa 0,0 l/m 1,0 m/s (1 Bft) O-NO 0,00 h 0 lux -4,1 C -4,3 C
29.12.2009 08:00 -2,6 C -2,9 C -2,8 C 97 % 1005 hPa 0,0 l/m 2,5 m/s (2 Bft) O-NO 0,00 h 701 lux -3,0 C -5,2 C
29.12.2009 09:00 -1,8 C -1,8 C -2,4 C 94 % 1004 hPa 0,0 l/m 3,1 m/s (2 Bft) O-NO 0,00 h 3,53 klux -2,6 C -6,5 C
29.12.2009 10:00 -1,4 C -1,2 C -2,0 C 93 % 1004 hPa 0,0 l/m 3,0 m/s (2 Bft) O-NO 0,00 h 7,10 klux -2,4 C -5,6 C
29.12.2009 11:00 -0,4 C -0,0 C -1,1 C 90 % 1003 hPa 0,0 l/m 3,8 m/s (3 Bft) O-NO 0,00 h 10,3 klux -1,8 C -6,3 C
29.12.2009 12:00 0,1 C 0,8 C -0,8 C 88 % 1002 hPa 0,0 l/m 3,9 m/s (3 Bft) O-NO 0,00 h 6,74 klux -1,7 C -6,2 C
29.12.2009 13:00 -0,1 C 0,7 C -0,7 C 92 % 1001 hPa 0,0 l/m 3,7 m/s (3 Bft) O-NO 0,00 h 4,59 klux -1,2 C -6,0 C
29.12.2009 14:00 -0,1 C 0,6 C -0,7 C 95 % 1000 hPa 0,0 l/m 2,2 m/s (2 Bft) O-NO 0,00 h 4,70 klux -0,8 C -1,6 C
29.12.2009 15:00 -0,1 C 0,6 C -0,7 C 96 % 999 hPa 0,0 l/m 2,9 m/s (2 Bft) O-NO 0,00 h 1,41 klux -0,7 C -3,9 C
29.12.2009 16:00 -0,0 C 0,5 C -0,6 C 96 % 998 hPa 0,0 l/m 2,9 m/s (2 Bft) O-NO 0,00 h 184 lux -0,6 C -3,6 C
29.12.2009 17:00 -0,2 C 0,6 C -0,6 C 97 % 998 hPa 0,0 l/m 3,2 m/s (2 Bft) O-NO 0,00 h 32 lux -0,7 C -4,9 C
29.12.2009 18:00 -0,1 C 0,6 C -0,6 C 97 % 997 hPa 0,0 l/m 2,9 m/s (2 Bft) O-NO 0,00 h 0 lux -0,5 C -3,6 C
29.12.2009 19:00 0,1 C 0,7 C -0,6 C 97 % 996 hPa 0,0 l/m 2,4 m/s (2 Bft) O 0,00 h 0 lux -0,3 C -2,3 C
29.12.2009 20:00 0,0 C 0,7 C -0,6 C 98 % 996 hPa 0,0 l/m 1,9 m/s (2 Bft) O 0,00 h 0 lux -0,2 C -1,0 C
29.12.2009 21:00 0,2 C 0,9 C -0,6 C 98 % 996 hPa 0,0 l/m 0,8 m/s (1 Bft) O-SO 0,00 h 0 lux -0,1 C 0,2 C
29.12.2009 22:00 0,2 C 1,0 C -0,6 C 97 % 996 hPa 0,0 l/m 0,0 m/s (0 Bft) N 0,00 h 0 lux -0,2 C 0,2 C
29.12.2009 23:00 0,2 C 1,0 C -0,6 C 97 % 996 hPa 0,0 l/m 0,0 m/s (0 Bft) N 0,00 h 0 lux -0,2 C 0,2 C
30.12.2009 00:00 0,2 C 1,0 C -0,6 C 97 % 995 hPa 0,0 l/m 0,0 m/s (0 Bft) N 0,00 h 0 lux -0,2 C 0,2 C
30.12.2009 01:00 0,3 C 1,1 C -0,6 C 97 % 995 hPa 0,0 l/m 0,0 m/s (0 Bft) N 0,00 h 0 lux -0,2 C 0,3 C
30.12.2009 02:00 0,3 C 1,1 C -0,6 C 97 % 995 hPa 0,0 l/m 0,0 m/s (0 Bft) N 0,00 h 0 lux -0,1 C 0,3 C
30.12.2009 03:00 0,3 C 1,2 C -0,6 C 97 % 995 hPa 0,0 l/m 0,0 m/s (0 Bft) N 0,00 h 0 lux -0,1 C 0,3 C
30.12.2009 04:00 0,4 C 1,2 C -0,6 C 97 % 995 hPa 0,0 l/m 0,0 m/s (0 Bft) N 0,00 h 0 lux -0,1 C 0,4 C
30.12.2009 05:00 0,3 C 1,1 C -0,6 C 97 % 994 hPa 0,0 l/m 0,0 m/s (0 Bft) N 0,00 h 0 lux -0,2 C 0,3 C
30.12.2009 06:00 0,1 C 0,9 C -0,6 C 97 % 994 hPa 0,0 l/m 0,0 m/s (0 Bft) N 0,00 h 0 lux -0,3 C 0,1 C
30.12.2009 07:00 0,2 C 0,9 C -0,6 C 98 % 994 hPa 0,0 l/m 0,0 m/s (0 Bft) N 0,00 h 0 lux -0,1 C 0,2 C
30.12.2009 08:00 0,4 C 1,0 C -0,6 C 98 % 995 hPa 0,0 l/m 0,0 m/s (0 Bft) N 0,00 h 725 lux 0,1 C 0,4 C
30.12.2009 09:00 0,7 C 1,3 C -0,6 C 98 % 995 hPa 0,0 l/m 0,0 m/s (0 Bft) N 0,00 h 3,28 klux 0,4 C 0,7 C
30.12.2009 10:00 1,5 C 2,1 C -0,6 C 97 % 995 hPa 0,0 l/m 0,0 m/s (0 Bft) N 0,00 h 6,35 klux 1,1 C 1,5 C
30.12.2009 11:00 2,1 C 2,8 C -0,6 C 98 % 995 hPa 0,0 l/m 0,0 m/s (0 Bft) N 0,00 h 7,11 klux 1,7 C 2,1 C
30.12.2009 12:00 2,4 C 3,2 C -0,5 C 97 % 994 hPa 0,0 l/m 0,1 m/s (0 Bft) SW 0,00 h 3,79 klux 2,0 C 2,4 C
30.12.2009 13:00 2,7 C 3,3 C -0,4 C 97 % 993 hPa 1,1 l/m 0,2 m/s (0 Bft) W 0,00 h 3,55 klux 2,2 C 2,7 C
30.12.2009 14:00 3,0 C 3,9 C -0,2 C 97 % 992 hPa 0,4 l/m 0,0 m/s (0 Bft) W 0,00 h 3,22 klux 2,6 C 3,0 C
30.12.2009 15:00 2,7 C 3,8 C -0,1 C 97 % 992 hPa 1,1 l/m 0,3 m/s (1 Bft) W 0,00 h 1,19 klux 2,3 C 2,4 C
30.12.2009 16:00 2,7 C 3,7 C 0,0 C 97 % 992 hPa 1,4 l/m 0,0 m/s (0 Bft) N 0,00 h 152 lux 2,3 C 2,7 C
30.12.2009 17:00 2,5 C 3,5 C 0,2 C 98 % 992 hPa 0,4 l/m 0,0 m/s (0 Bft) N 0,00 h 4 lux 2,2 C 2,5 C
30.12.2009 18:00 2,4 C 3,4 C 0,2 C 98 % 993 hPa 0,0 l/m 0,0 m/s (0 Bft) N 0,00 h 0 lux 2,2 C 2,4 C
30.12.2009 19:00 2,5 C 3,5 C 0,3 C 98 % 993 hPa 0,0 l/m 0,0 m/s (0 Bft) N 0,00 h 0 lux 2,2 C 2,5 C
30.12.2009 20:00 2,6 C 3,5 C 0,3 C 98 % 993 hPa 0,4 l/m 0,0 m/s (0 Bft) N 0,00 h 0 lux 2,3 C 2,6 C
30.12.2009 21:00 2,9 C 3,7 C 0,5 C 98 % 994 hPa 0,0 l/m 0,0 m/s (0 Bft) N 0,00 h 0 lux 2,6 C 2,9 C
30.12.2009 22:00 3,4 C 4,0 C 0,7 C 97 % 994 hPa 0,0 l/m 0,0 m/s (0 Bft) N 0,00 h 0 lux 3,0 C 3,4 C
30.12.2009 23:00 2,9 C 3,9 C 1,0 C 97 % 994 hPa 0,0 l/m 0,8 m/s (1 Bft) SW 0,00 h 0 lux 2,5 C 2,9 C
31.12.2009 00:00 3,3 C 4,2 C 1,3 C 98 % 994 hPa 0,0 l/m 0,0 m/s (0 Bft) N 0,00 h 0 lux 3,0 C 3,3 C
31.12.2009 01:00 3,3 C 4,2 C 1,3 C 98 % 994 hPa 0,0 l/m 0,0 m/s (0 Bft) N 0,00 h 0 lux 3,0 C 3,3 C
31.12.2009 02:00 3,4 C 4,3 C 1,3 C 98 % 995 hPa 0,0 l/m 0,1 m/s (0 Bft) W 0,00 h 0 lux 3,1 C 3,4 C
31.12.2009 03:00 3,5 C 4,3 C 1,3 C 98 % 995 hPa 0,0 l/m 0,0 m/s (0 Bft) N 0,00 h 0 lux 3,2 C 3,5 C
31.12.2009 04:00 3,2 C 4,2 C 1,3 C 98 % 994 hPa 0,0 l/m 0,0 m/s (0 Bft) N 0,00 h 0 lux 2,9 C 3,2 C
31.12.2009 05:00 3,1 C 4,0 C 1,3 C 98 % 994 hPa 0,0 l/m 0,0 m/s (0 Bft) N 0,00 h 0 lux 2,8 C 3,1 C
31.12.2009 06:00 2,7 C 3,7 C 1,2 C 98 % 994 hPa 0,0 l/m 0,0 m/s (0 Bft) W 0,00 h 0 lux 2,4 C 2,7 C
31.12.2009 07:00 2,7 C 3,6 C 1,2 C 98 % 994 hPa 0,0 l/m 0,4 m/s (1 Bft) O-SO 0,00 h 0 lux 2,4 C 2,7 C
31.12.2009 08:00 2,8 C 3,7 C 1,2 C 98 % 994 hPa 0,7 l/m 0,0 m/s (0 Bft) N 0,00 h 200 lux 2,5 C 2,8 C
31.12.2009 09:00 3,0 C 3,9 C 1,4 C 98 % 994 hPa 1,1 l/m 0,0 m/s (0 Bft) N 0,00 h 725 lux 2,7 C 3,0 C
31.12.2009 10:00 3,5 C 4,2 C 1,8 C 98 % 994 hPa 2,2 l/m 0,9 m/s (1 Bft) O 0,00 h 2,49 klux 3,2 C 3,4 C
31.12.2009 11:00 3,7 C 4,5 C 2,2 C 98 % 994 hPa 0,0 l/m 1,8 m/s (2 Bft) O-SO 0,00 h 2,93 klux 3,4 C 3,0 C
31.12.2009 12:00 3,5 C 4,5 C 2,3 C 98 % 993 hPa 0,7 l/m 1,7 m/s (2 Bft) O-SO 0,00 h 4,41 klux 3,2 C 2,7 C
31.12.2009 13:00 3,1 C 4,2 C 2,1 C 98 % 993 hPa 2,2 l/m 2,0 m/s (2 Bft) O-SO 0,00 h 3,28 klux 2,8 C 2,1 C
31.12.2009 14:00 2,9 C 4,0 C 1,9 C 98 % 992 hPa 2,2 l/m 1,9 m/s (2 Bft) O-SO 0,00 h 3,04 klux 2,6 C 2,0 C
31.12.2009 15:00 2,6 C 3,7 C 1,7 C 97 % 992 hPa 1,8 l/m 2,1 m/s (2 Bft) O-SO 0,00 h 1,57 klux 2,2 C 1,2 C
31.12.2009 16:00 2,4 C 3,4 C 1,6 C 98 % 992 hPa 0,0 l/m 0,7 m/s (1 Bft) O-SO 0,00 h 173 lux 2,1 C 2,4 C
31.12.2009 17:00 2,2 C 3,3 C 1,6 C 98 % 992 hPa 0,4 l/m 0,9 m/s (1 Bft) SO 0,00 h 15 lux 1,9 C 2,2 C
31.12.2009 18:00 2,0 C 3,2 C 1,6 C 98 % 992 hPa 0,0 l/m 0,6 m/s (1 Bft) SO 0,00 h 0 lux 1,8 C 2,0 C
31.12.2009 19:00 1,9 C 3,0 C 1,6 C 97 % 992 hPa 0,4 l/m 0,7 m/s (1 Bft) SO 0,00 h 0 lux 1,5 C 1,9 C
31.12.2009 20:00 1,7 C 2,8 C 1,4 C 97 % 992 hPa 0,0 l/m 0,7 m/s (1 Bft) O-SO 0,00 h 0 lux 1,3 C 1,7 C
31.12.2009 21:00 1,7 C 2,8 C 1,3 C 97 % 993 hPa 0,4 l/m 0,2 m/s (0 Bft) O-SO 0,00 h 0 lux 1,2 C 1,7 C
31.12.2009 22:00 1,2 C 2,4 C 0,8 C 96 % 993 hPa 0,4 l/m 1,2 m/s (1 Bft) O-SO 0,00 h 0 lux 0,7 C 0,8 C
31.12.2009 23:00 0,9 C 2,0 C 0,6 C 96 % 993 hPa 0,4 l/m 0,0 m/s (0 Bft) N 0,00 h 0 lux 0,3 C 0,9 C
01.01.2010 00:00 0,7 C 1,8 C 0,4 C 96 % 993 hPa 0,0 l/m 0,0 m/s (0 Bft) N 0,00 h 0 lux 0,1 C 0,7 C
01.01.2010 01:00 0,3 C 1,5 C 0,1 C 95 % 992 hPa 0,0 l/m 1,0 m/s (1 Bft) O-SO 0,00 h 0 lux -0,3 C -0,1 C
01.01.2010 02:00 0,1 C 1,3 C -0,1 C 95 % 993 hPa 0,0 l/m 1,2 m/s (1 Bft) O 0,00 h 0 lux -0,6 C -0,6 C
01.01.2010 03:00 -0,2 C 1,0 C -0,3 C 94 % 992 hPa 0,0 l/m 0,7 m/s (1 Bft) O 0,00 h 0 lux -1,1 C -0,5 C
01.01.2010 04:00 -0,5 C 0,7 C -0,5 C 93 % 993 hPa 0,0 l/m 1,0 m/s (1 Bft) O 0,00 h 0 lux -1,6 C -0,9 C
01.01.2010 05:00 -0,9 C 0,4 C -0,7 C 91 % 993 hPa 0,0 l/m 1,8 m/s (2 Bft) O 0,00 h 0 lux -2,2 C -2,3 C
01.01.2010 06:00 -1,1 C 0,2 C -0,8 C 90 % 993 hPa 0,0 l/m 1,5 m/s (1 Bft) O 0,00 h 0 lux -2,5 C -2,7 C
01.01.2010 07:00 -1,4 C -0,2 C -1,0 C 89 % 993 hPa 0,0 l/m 1,7 m/s (2 Bft) O 0,00 h 0 lux -3,0 C -2,5 C
01.01.2010 08:00 -1,6 C -0,5 C -1,1 C 89 % 994 hPa 0,0 l/m 2,3 m/s (2 Bft) O 0,00 h 270 lux -3,2 C -4,3 C
01.01.2010 09:00 -1,6 C -0,6 C -1,1 C 88 % 994 hPa 0,0 l/m 1,2 m/s (1 Bft) O 0,00 h 2,07 klux -3,3 C -2,3 C
01.01.2010 10:00 -1,4 C -0,3 C -1,1 C 87 % 995 hPa 0,0 l/m 1,6 m/s (2 Bft) O 0,00 h 5,29 klux -3,3 C -2,3 C
01.01.2010 11:00 -1,2 C -0,1 C -1,0 C 85 % 995 hPa 0,0 l/m 2,3 m/s (2 Bft) O 0,00 h 7,91 klux -3,4 C -4,1 C
01.01.2010 12:00 -1,3 C -0,1 C -1,0 C 84 % 995 hPa 0,0 l/m 1,2 m/s (1 Bft) O 0,00 h 4,36 klux -3,5 C -1,8 C
01.01.2010 13:00 -1,5 C -0,3 C -1,1 C 84 % 996 hPa 0,0 l/m 2,3 m/s (2 Bft) O 0,00 h 3,98 klux -3,8 C -4,0 C
01.01.2010 14:00 -1,6 C -0,4 C -1,1 C 84 % 996 hPa 0,0 l/m 2,1 m/s (2 Bft) O 0,00 h 2,52 klux -3,9 C -3,8 C
01.01.2010 15:00 -1,7 C -0,6 C -1,2 C 85 % 997 hPa 0,0 l/m 0,9 m/s (1 Bft) O 0,00 h 1,18 klux -3,9 C -2,4 C
01.01.2010 16:00 -1,8 C -0,8 C -1,2 C 85 % 998 hPa 0,0 l/m 1,2 m/s (1 Bft) O 0,00 h 187 lux -4,0 C -2,2 C
01.01.2010 17:00 -2,1 C -1,0 C -1,4 C 85 % 999 hPa 0,0 l/m 1,8 m/s (2 Bft) O 0,00 h 24 lux -4,2 C -2,9 C
01.01.2010 18:00 -2,2 C -1,1 C -1,4 C 86 % 1000 hPa 0,0 l/m 0,9 m/s (1 Bft) O 0,00 h 0 lux -4,3 C -2,2 C
01.01.2010 19:00 -2,2 C -1,2 C -1,4 C 84 % 1000 hPa 0,0 l/m 0,6 m/s (1 Bft) O 0,00 h 0 lux -4,5 C -2,4 C
01.01.2010 20:00 -2,2 C -1,3 C -1,6 C 84 % 1001 hPa 0,0 l/m 0,5 m/s (1 Bft) O-NO 0,00 h 0 lux -4,6 C -2,2 C
01.01.2010 21:00 -2,4 C -1,5 C -1,8 C 84 % 1002 hPa 0,0 l/m 0,8 m/s (1 Bft) N-NO 0,00 h 0 lux -4,8 C -3,1 C
01.01.2010 22:00 -2,5 C -1,5 C -1,8 C 84 % 1003 hPa 0,0 l/m 1,4 m/s (1 Bft) W-NW 0,00 h 0 lux -4,8 C -3,8 C
01.01.2010 23:00 -2,6 C -1,5 C -1,8 C 87 % 1004 hPa 0,0 l/m 1,2 m/s (1 Bft) W 0,00 h 0 lux -4,5 C -2,8 C
02.01.2010 00:00 -2,7 C -1,6 C -1,8 C 91 % 1005 hPa 0,0 l/m 0,8 m/s (1 Bft) W 0,00 h 0 lux -4,0 C -2,7 C
02.01.2010 01:00 -2,8 C -1,9 C -1,9 C 90 % 1006 hPa 0,0 l/m 1,0 m/s (1 Bft) W 0,00 h 0 lux -4,2 C -2,9 C
02.01.2010 02:00 -3,1 C -2,1 C -2,0 C 90 % 1007 hPa 0,0 l/m 2,1 m/s (2 Bft) W-SW 0,00 h 0 lux -4,5 C -4,5 C
02.01.2010 03:00 -3,4 C -2,5 C -2,3 C 90 % 1008 hPa 0,0 l/m 2,5 m/s (2 Bft) W-SW 0,00 h 0 lux -4,9 C -6,1 C
02.01.2010 04:00 -3,6 C -2,8 C -2,7 C 88 % 1008 hPa 0,0 l/m 3,2 m/s (2 Bft) W-SW 0,00 h 0 lux -5,2 C -8,4 C
02.01.2010 05:00 -3,6 C -2,9 C -2,9 C 86 % 1009 hPa 0,0 l/m 4,4 m/s (3 Bft) W-SW 0,00 h 0 lux -5,7 C -11,5 C
02.01.2010 06:00 -3,6 C -2,8 C -2,9 C 83 % 1010 hPa 0,0 l/m 3,8 m/s (3 Bft) W-SW 0,00 h 0 lux -6,1 C -10,1 C
02.01.2010 07:00 -4,0 C -3,2 C -3,1 C 83 % 1011 hPa 0,0 l/m 3,5 m/s (3 Bft) SW 0,00 h 0 lux -6,4 C -9,8 C
02.01.2010 08:00 -4,6 C -3,8 C -3,4 C 83 % 1012 hPa 0,0 l/m 2,5 m/s (2 Bft) W-SW 0,00 h 776 lux -7,0 C -9,0 C
02.01.2010 09:00 -4,2 C -3,5 C -3,2 C 83 % 1013 hPa 0,0 l/m 2,4 m/s (2 Bft) W-SW 0,00 h 5,35 klux -6,7 C -7,1 C
02.01.2010 10:00 -4,1 C -3,2 C -3,2 C 82 % 1014 hPa 0,0 l/m 3,9 m/s (3 Bft) W-SW 0,10 h 13,7 klux -6,8 C -11,3 C
02.01.2010 11:00 -3,5 C -2,8 C -2,4 C 78 % 1014 hPa 0,0 l/m 3,5 m/s (3 Bft) W 0,98 h 32,5 klux -6,7 C -9,4 C
02.01.2010 12:00 -2,6 C -1,9 C -1,3 C 78 % 1015 hPa 0,0 l/m 3,2 m/s (2 Bft) SW 0,92 h 30,9 klux -6,0 C -7,6 C
02.01.2010 13:00 -2,0 C -1,3 C -1,2 C 77 % 1015 hPa 0,0 l/m 2,1 m/s (2 Bft) SW 1,00 h 30,5 klux -5,4 C -3,7 C
02.01.2010 14:00 -1,5 C -1,0 C -1,4 C 75 % 1016 hPa 0,0 l/m 1,8 m/s (2 Bft) SW 1,02 h 26,8 klux -5,4 C -2,2 C
02.01.2010 15:00 -1,4 C -0,7 C -1,5 C 75 % 1016 hPa 0,0 l/m 0,5 m/s (1 Bft) SW 0,90 h 12,0 klux -5,3 C -1,4 C
02.01.2010 16:00 -2,4 C -1,4 C -2,0 C 81 % 1017 hPa 0,0 l/m 1,2 m/s (1 Bft) S 0,17 h 1,10 klux -5,2 C -2,6 C
02.01.2010 17:00 -2,5 C -1,7 C -2,2 C 83 % 1017 hPa 0,0 l/m 1,3 m/s (1 Bft) SW 0,00 h 11 lux -5,0 C -3,8 C
02.01.2010 18:00 -2,5 C -1,7 C -2,1 C 86 % 1017 hPa 0,0 l/m 0,2 m/s (0 Bft) SW 0,00 h 0 lux -4,5 C -2,5 C
02.01.2010 19:00 -3,0 C -2,1 C -2,5 C 88 % 1017 hPa 0,0 l/m 0,2 m/s (0 Bft) SW 0,00 h 0 lux -4,8 C -3,0 C
02.01.2010 20:00 -3,5 C -2,6 C -2,8 C 90 % 1018 hPa 0,0 l/m 0,0 m/s (0 Bft) N 0,00 h 0 lux -4,9 C -3,5 C
02.01.2010 21:00 -3,0 C -2,2 C -2,6 C 91 % 1018 hPa 0,0 l/m 0,0 m/s (0 Bft) N 0,00 h 0 lux -4,3 C -3,0 C
02.01.2010 22:00 -2,4 C -1,7 C -2,3 C 90 % 1018 hPa 0,0 l/m 0,1 m/s (0 Bft) S-SW 0,00 h 0 lux -3,7 C -2,4 C
02.01.2010 23:00 -2,1 C -1,4 C -2,1 C 90 % 1018 hPa 0,0 l/m 0,2 m/s (0 Bft) S 0,00 h 0 lux -3,5 C -2,1 C
03.01.2010 00:00 -2,0 C -1,4 C -2,1 C 90 % 1017 hPa 0,0 l/m 0,0 m/s (0 Bft) N 0,00 h 0 lux -3,4 C -2,0 C
Min-Datum _ 02.01.10 02.01.10 02.01.10 02.01.10 30.12.09 - 28.12.09 - - - 02.01.10 02.01.10
_ Min-Zeit 08:16 08:31 09:00 14:56 13:35 - 12:05 - - - 08:21 05:25
Minimum _ -4,6 C -3,9 C -3,6 C 73 % 992 hPa - 0,0 m/s (0 Bft) - - - -7,2 C -16,7 C
Max-Datum _ 31.12.09 31.12.09 31.12.09 31.12.09 02.01.10 31.12.09 28.12.09 - 02.01.10 02.01.10 31.12.09 31.12.09
_ Max-Zeit 00:15 12:35 12:40 08:10 20:45 10:10 04:44 - 10:56 12:05 10:31 00:15
Maximum _ 3,9 C 4,6 C 2,4 C 99 % 1018 hPa 2,2 l/m 7,2 m/s
W-SW (4 Bft)
- 0,10 h 43,6 klux 3,7 C 3,9 C
Durchschnitt _ 0,0 C 0,8 C -0,6 C 92 % 1001 hPa #18,0 l/m 1,3 m/s (1 Bft) O #5:05 h 2,03 klux -1,1 C -1,4 C